Mantador, ND

5:45 PM CDT on October 22, 2014 (GMT -0500)
Stern | Change Station
CLOSE
Current Station
Airport
Location: Wahpeton,
Elevation: 968 ft
Nearby Weather Stations

Elev 968 ft 46.24 °N, 96.61 °W | Updated 10 minutes ago

Rain
Rain
55 °F
Feels Like 55 °F
N
0
Wind Variable Wind from North

Today
High -- | Low -- °F
--% Chance of Precip.
Yesterday
High -- | Low -- °F
Precip. -- in
7:54 AM 6:29 PM
Waning Crescent, 1% visible
Pressure 29.87 in
Visibility 10.0 miles
Clouds Scattered Clouds 3900 ft
Scattered Clouds 4500 ft
Mostly Cloudy 8000 ft
Dew Point 52 °F
Humidity 88%
Rainfall 0.02 in
Snow Depth Not available.
UV 0 out of 12
Pollen 1.90 out of 12
Air Quality Not available.
Flu Activity Not available.
METAR KBWP 222235Z AUTO 00000KT 10SM SCT039 SCT045 BKN080 13/11 A2987 RMK AO1 P0001

More Conditions Fewer Conditions

Pressure 29.87 in
Visibility 10.0 miles
Clouds Scattered Clouds 3900 ft
Scattered Clouds 4500 ft
Mostly Cloudy 8000 ft
Dew Point 52 °F
Humidity 88%
Rainfall 0.02 in
Snow Depth Not available.
UV 0 out of 12
Pollen 1.90 out of 12
Air Quality Not available.
Flu Activity Not available.
METAR KBWP 222235Z AUTO 00000KT 10SM SCT039 SCT045 BKN080 13/11 A2987 RMK AO1 P0001

More Conditions Fewer Conditions

10-Day Weather Forecast

Almanac

Astronomy

Oct. 22, 2014 Rise Set
Actual Time 7:54 AM CDT 6:29 PM CDT
Civil Twilight 7:24 AM CDT 6:59 PM CDT
Nautical Twilight 6:49 AM CDT 7:34 PM CDT
Astronomical Twilight 6:14 AM CDT 8:09 PM CDT
Moon 6:33 AM CDT 5:59 PM CDT
Length of Visible Light 11h 35m
Length of Day
10h 34m
Tomorrow will be 3m 4s shorter.
Waning Crescent, 1% of the Moon is Illuminated
Today
Waning Crescent
Oct 23
New
Oct 30
First Quarter
Nov 6
Full
Nov 14
Last Quarter

Today's Extremes

State Highs State Lows

Community

WunderPhotos

Upload Photos

1,764,065 photos uploaded!

WunderBlogs® & News

Nearby

Snow Depth

Station Depth Elevation
No new snow has been reported.

Earthquake Activity

City Distance Mag. Time & Date
No recent earthquake activity has been reported nearby.
Minimum magnitude displayed is 2.5.

Coastal Water Temperatures

Place Temperature
No Stations Reporting

Nearby Weather Stations